sensor_id;sensor_type;location;lat;lon;timestamp;P1;durP1;ratioP1;P2;durP2;ratioP2
55483;SDS011;41345;51.704;5.146;2023-02-18T00:03:43;55.70;;;42.13;;
55483;SDS011;41345;51.704;5.146;2023-02-18T00:08:44;57.20;;;42.03;;
55483;SDS011;41345;51.704;5.146;2023-02-18T00:13:51;55.70;;;41.58;;
55483;SDS011;41345;51.704;5.146;2023-02-18T00:18:55;55.97;;;42.38;;
55483;SDS011;41345;51.704;5.146;2023-02-18T00:23:56;56.85;;;42.30;;
55483;SDS011;41345;51.704;5.146;2023-02-18T00:28:56;52.20;;;40.35;;
55483;SDS011;41345;51.704;5.146;2023-02-18T00:33:57;57.95;;;43.88;;
55483;SDS011;41345;51.704;5.146;2023-02-18T00:38:58;58.38;;;42.92;;
55483;SDS011;41345;51.704;5.146;2023-02-18T00:43:58;59.65;;;42.58;;
55483;SDS011;41345;51.704;5.146;2023-02-18T00:48:59;58.72;;;43.67;;
55483;SDS011;41345;51.704;5.146;2023-02-18T00:53:59;57.47;;;42.53;;
55483;SDS011;41345;51.704;5.146;2023-02-18T00:58:59;61.92;;;43.67;;
55483;SDS011;41345;51.704;5.146;2023-02-18T01:04:00;55.40;;;41.60;;
55483;SDS011;41345;51.704;5.146;2023-02-18T01:09:00;61.22;;;42.50;;
55483;SDS011;41345;51.704;5.146;2023-02-18T01:14:02;62.33;;;42.67;;
55483;SDS011;41345;51.704;5.146;2023-02-18T01:19:02;60.22;;;42.90;;
55483;SDS011;41345;51.704;5.146;2023-02-18T01:24:03;62.00;;;42.00;;
55483;SDS011;41345;51.704;5.146;2023-02-18T01:29:03;61.72;;;42.58;;
55483;SDS011;41345;51.704;5.146;2023-02-18T01:34:03;55.83;;;40.75;;
55483;SDS011;41345;51.704;5.146;2023-02-18T01:39:05;58.10;;;42.03;;
55483;SDS011;41345;51.704;5.146;2023-02-18T01:49:30;65.85;;;43.55;;
55483;SDS011;41345;51.704;5.146;2023-02-18T01:54:35;64.20;;;42.67;;
55483;SDS011;41345;51.704;5.146;2023-02-18T01:59:39;60.33;;;43.00;;
55483;SDS011;41345;51.704;5.146;2023-02-18T02:04:40;54.65;;;42.67;;
55483;SDS011;41345;51.704;5.146;2023-02-18T02:09:40;57.95;;;43.13;;
55483;SDS011;41345;51.704;5.146;2023-02-18T02:24:51;55.45;;;41.60;;
55483;SDS011;41345;51.704;5.146;2023-02-18T02:50:09;68.75;;;46.38;;
55483;SDS011;41345;51.704;5.146;2023-02-18T02:55:12;73.68;;;51.03;;
55483;SDS011;41345;51.704;5.146;2023-02-18T03:00:13;90.72;;;52.53;;
55483;SDS011;41345;51.704;5.146;2023-02-18T03:20:36;68.10;;;42.75;;
55483;SDS011;41345;51.704;5.146;2023-02-18T03:25:38;73.70;;;45.08;;
55483;SDS011;41345;51.704;5.146;2023-02-18T03:35:42;64.00;;;42.75;;
55483;SDS011;41345;51.704;5.146;2023-02-18T03:40:43;52.70;;;38.17;;
55483;SDS011;41345;51.704;5.146;2023-02-18T03:45:43;67.43;;;43.22;;
55483;SDS011;41345;51.704;5.146;2023-02-18T03:50:44;70.23;;;53.80;;
55483;SDS011;41345;51.704;5.146;2023-02-18T03:55:44;77.47;;;69.88;;
55483;SDS011;41345;51.704;5.146;2023-02-18T04:00:44;74.50;;;67.18;;
55483;SDS011;41345;51.704;5.146;2023-02-18T04:05:45;67.80;;;60.58;;
55483;SDS011;41345;51.704;5.146;2023-02-18T04:10:47;66.57;;;60.10;;
55483;SDS011;41345;51.704;5.146;2023-02-18T04:15:50;67.72;;;61.60;;
55483;SDS011;41345;51.704;5.146;2023-02-18T04:20:51;63.47;;;57.90;;
55483;SDS011;41345;51.704;5.146;2023-02-18T04:25:51;61.78;;;56.20;;
55483;SDS011;41345;51.704;5.146;2023-02-18T04:30:51;61.60;;;56.30;;
55483;SDS011;41345;51.704;5.146;2023-02-18T04:35:52;58.15;;;53.17;;
55483;SDS011;41345;51.704;5.146;2023-02-18T04:40:52;57.10;;;52.42;;
55483;SDS011;41345;51.704;5.146;2023-02-18T04:45:52;52.17;;;47.60;;
55483;SDS011;41345;51.704;5.146;2023-02-18T04:50:52;51.25;;;47.25;;
55483;SDS011;41345;51.704;5.146;2023-02-18T04:55:53;52.20;;;47.70;;
55483;SDS011;41345;51.704;5.146;2023-02-18T05:00:53;54.75;;;49.97;;
55483;SDS011;41345;51.704;5.146;2023-02-18T05:05:57;51.67;;;47.53;;
55483;SDS011;41345;51.704;5.146;2023-02-18T05:10:57;53.65;;;49.22;;
55483;SDS011;41345;51.704;5.146;2023-02-18T05:15:58;54.37;;;49.87;;
55483;SDS011;41345;51.704;5.146;2023-02-18T05:20:58;57.17;;;52.58;;
55483;SDS011;41345;51.704;5.146;2023-02-18T05:25:59;54.95;;;50.45;;
55483;SDS011;41345;51.704;5.146;2023-02-18T05:30:59;52.47;;;48.63;;
55483;SDS011;41345;51.704;5.146;2023-02-18T05:35:59;55.03;;;51.05;;
55483;SDS011;41345;51.704;5.146;2023-02-18T05:41:00;57.88;;;53.58;;
55483;SDS011;41345;51.704;5.146;2023-02-18T05:46:00;56.70;;;52.40;;
55483;SDS011;41345;51.704;5.146;2023-02-18T05:51:00;48.72;;;45.03;;
55483;SDS011;41345;51.704;5.146;2023-02-18T05:56:01;49.77;;;45.77;;
55483;SDS011;41345;51.704;5.146;2023-02-18T06:01:01;50.70;;;46.57;;
55483;SDS011;41345;51.704;5.146;2023-02-18T06:06:01;52.03;;;47.65;;
55483;SDS011;41345;51.704;5.146;2023-02-18T06:11:02;57.30;;;51.93;;
55483;SDS011;41345;51.704;5.146;2023-02-18T06:16:02;53.40;;;48.70;;
55483;SDS011;41345;51.704;5.146;2023-02-18T06:21:02;50.30;;;46.03;;
55483;SDS011;41345;51.704;5.146;2023-02-18T06:26:03;45.17;;;41.33;;
55483;SDS011;41345;51.704;5.146;2023-02-18T06:31:03;49.80;;;45.58;;
55483;SDS011;41345;51.704;5.146;2023-02-18T06:36:04;51.00;;;46.60;;
55483;SDS011;41345;51.704;5.146;2023-02-18T06:41:08;54.85;;;50.25;;
55483;SDS011;41345;51.704;5.146;2023-02-18T06:46:08;53.47;;;49.20;;
55483;SDS011;41345;51.704;5.146;2023-02-18T06:51:09;57.85;;;53.08;;
55483;SDS011;41345;51.704;5.146;2023-02-18T06:56:09;52.40;;;48.20;;
55483;SDS011;41345;51.704;5.146;2023-02-18T07:01:10;57.78;;;52.85;;
55483;SDS011;41345;51.704;5.146;2023-02-18T07:06:10;54.60;;;50.30;;
55483;SDS011;41345;51.704;5.146;2023-02-18T07:11:10;51.28;;;47.28;;
55483;SDS011;41345;51.704;5.146;2023-02-18T07:16:11;47.00;;;42.80;;
55483;SDS011;41345;51.704;5.146;2023-02-18T07:21:11;46.65;;;42.55;;
55483;SDS011;41345;51.704;5.146;2023-02-18T07:26:12;43.88;;;39.88;;
55483;SDS011;41345;51.704;5.146;2023-02-18T07:31:13;38.58;;;32.85;;
55483;SDS011;41345;51.704;5.146;2023-02-18T07:36:13;32.88;;;29.73;;
55483;SDS011;41345;51.704;5.146;2023-02-18T07:41:17;34.22;;;30.98;;
55483;SDS011;41345;51.704;5.146;2023-02-18T07:46:18;35.72;;;30.48;;
55483;SDS011;41345;51.704;5.146;2023-02-18T07:51:18;30.85;;;27.95;;
55483;SDS011;41345;51.704;5.146;2023-02-18T07:56:19;31.50;;;28.17;;
55483;SDS011;41345;51.704;5.146;2023-02-18T08:01:19;28.60;;;25.55;;
55483;SDS011;41345;51.704;5.146;2023-02-18T08:06:20;34.53;;;24.70;;
55483;SDS011;41345;51.704;5.146;2023-02-18T08:11:21;30.02;;;21.25;;
55483;SDS011;41345;51.704;5.146;2023-02-18T08:16:21;24.98;;;19.55;;
55483;SDS011;41345;51.704;5.146;2023-02-18T08:21:23;22.88;;;17.40;;
55483;SDS011;41345;51.704;5.146;2023-02-18T08:26:24;25.08;;;17.48;;
55483;SDS011;41345;51.704;5.146;2023-02-18T08:31:25;25.80;;;18.52;;
55483;SDS011;41345;51.704;5.146;2023-02-18T08:36:26;24.33;;;17.65;;
55483;SDS011;41345;51.704;5.146;2023-02-18T08:41:27;27.38;;;15.57;;
55483;SDS011;41345;51.704;5.146;2023-02-18T08:46:27;21.30;;;15.03;;
55483;SDS011;41345;51.704;5.146;2023-02-18T08:51:27;21.75;;;15.70;;
55483;SDS011;41345;51.704;5.146;2023-02-18T08:56:28;24.40;;;17.08;;
55483;SDS011;41345;51.704;5.146;2023-02-18T09:01:30;23.35;;;16.48;;
55483;SDS011;41345;51.704;5.146;2023-02-18T09:06:31;18.25;;;12.65;;
55483;SDS011;41345;51.704;5.146;2023-02-18T09:11:31;20.75;;;13.68;;
55483;SDS011;41345;51.704;5.146;2023-02-18T09:16:31;18.55;;;13.07;;
55483;SDS011;41345;51.704;5.146;2023-02-18T09:21:32;15.15;;;11.18;;
55483;SDS011;41345;51.704;5.146;2023-02-18T09:26:32;14.38;;;9.23;;
55483;SDS011;41345;51.704;5.146;2023-02-18T09:31:32;18.95;;;9.52;;
55483;SDS011;41345;51.704;5.146;2023-02-18T09:36:33;15.65;;;8.13;;
55483;SDS011;41345;51.704;5.146;2023-02-18T09:51:47;18.85;;;8.55;;
55483;SDS011;41345;51.704;5.146;2023-02-18T09:56:47;14.10;;;7.95;;
55483;SDS011;41345;51.704;5.146;2023-02-18T10:01:49;16.77;;;8.38;;
55483;SDS011;41345;51.704;5.146;2023-02-18T10:06:51;14.55;;;8.35;;
55483;SDS011;41345;51.704;5.146;2023-02-18T10:11:56;14.93;;;8.60;;
55483;SDS011;41345;51.704;5.146;2023-02-18T10:21:57;12.98;;;9.10;;
55483;SDS011;41345;51.704;5.146;2023-02-18T10:26:57;10.80;;;8.65;;
55483;SDS011;41345;51.704;5.146;2023-02-18T10:32:03;14.40;;;10.35;;
55483;SDS011;41345;51.704;5.146;2023-02-18T10:37:12;17.42;;;10.40;;
55483;SDS011;41345;51.704;5.146;2023-02-18T10:43:00;15.82;;;11.52;;
55483;SDS011;41345;51.704;5.146;2023-02-18T10:48:02;11.65;;;9.85;;
55483;SDS011;41345;51.704;5.146;2023-02-18T10:53:10;16.90;;;10.50;;
55483;SDS011;41345;51.704;5.146;2023-02-18T10:58:24;14.95;;;9.80;;
55483;SDS011;41345;51.704;5.146;2023-02-18T11:03:35;13.20;;;10.70;;
55483;SDS011;41345;51.704;5.146;2023-02-18T11:08:39;12.38;;;10.80;;
55483;SDS011;41345;51.704;5.146;2023-02-18T11:13:41;12.43;;;10.68;;
55483;SDS011;41345;51.704;5.146;2023-02-18T11:18:42;13.77;;;10.70;;
55483;SDS011;41345;51.704;5.146;2023-02-18T11:23:47;14.88;;;9.23;;
55483;SDS011;41345;51.704;5.146;2023-02-18T11:28:49;11.70;;;10.18;;
55483;SDS011;41345;51.704;5.146;2023-02-18T11:33:51;14.45;;;9.60;;
55483;SDS011;41345;51.704;5.146;2023-02-18T11:38:56;14.93;;;9.80;;
55483;SDS011;41345;51.704;5.146;2023-02-18T11:43:57;10.10;;;8.32;;
55483;SDS011;41345;51.704;5.146;2023-02-18T11:49:21;14.38;;;8.93;;
55483;SDS011;41345;51.704;5.146;2023-02-18T11:54:23;15.32;;;8.10;;
55483;SDS011;41345;51.704;5.146;2023-02-18T11:59:24;14.95;;;8.80;;
55483;SDS011;41345;51.704;5.146;2023-02-18T12:04:28;11.32;;;7.32;;
55483;SDS011;41345;51.704;5.146;2023-02-18T12:09:34;13.52;;;9.93;;
55483;SDS011;41345;51.704;5.146;2023-02-18T12:14:36;14.88;;;7.63;;
55483;SDS011;41345;51.704;5.146;2023-02-18T12:34:52;9.88;;;6.72;;
55483;SDS011;41345;51.704;5.146;2023-02-18T12:50:14;12.90;;;7.05;;
55483;SDS011;41345;51.704;5.146;2023-02-18T13:00:40;12.87;;;7.73;;
55483;SDS011;41345;51.704;5.146;2023-02-18T13:16:10;16.67;;;7.50;;
55483;SDS011;41345;51.704;5.146;2023-02-18T13:21:12;12.27;;;6.60;;
55483;SDS011;41345;51.704;5.146;2023-02-18T13:26:13;12.32;;;5.18;;
55483;SDS011;41345;51.704;5.146;2023-02-18T13:31:21;9.73;;;5.82;;
55483;SDS011;41345;51.704;5.146;2023-02-18T13:41:26;13.43;;;6.07;;
55483;SDS011;41345;51.704;5.146;2023-02-18T13:46:27;10.50;;;5.43;;
55483;SDS011;41345;51.704;5.146;2023-02-18T13:51:29;16.70;;;5.90;;
55483;SDS011;41345;51.704;5.146;2023-02-18T13:56:32;12.32;;;6.90;;
55483;SDS011;41345;51.704;5.146;2023-02-18T14:01:37;11.55;;;6.60;;
55483;SDS011;41345;51.704;5.146;2023-02-18T14:06:38;13.13;;;7.22;;
55483;SDS011;41345;51.704;5.146;2023-02-18T14:22:31;13.93;;;8.10;;
55483;SDS011;41345;51.704;5.146;2023-02-18T14:27:32;11.85;;;8.65;;
55483;SDS011;41345;51.704;5.146;2023-02-18T14:32:33;13.82;;;8.90;;
55483;SDS011;41345;51.704;5.146;2023-02-18T14:48:02;11.40;;;5.47;;
55483;SDS011;41345;51.704;5.146;2023-02-18T14:53:07;12.63;;;5.85;;
55483;SDS011;41345;51.704;5.146;2023-02-18T14:58:15;12.30;;;7.07;;
55483;SDS011;41345;51.704;5.146;2023-02-18T15:03:18;9.98;;;6.05;;
55483;SDS011;41345;51.704;5.146;2023-02-18T15:08:22;9.98;;;6.35;;
55483;SDS011;41345;51.704;5.146;2023-02-18T15:13:23;12.30;;;6.57;;
55483;SDS011;41345;51.704;5.146;2023-02-18T15:23:26;11.50;;;7.75;;
55483;SDS011;41345;51.704;5.146;2023-02-18T15:28:27;11.45;;;8.88;;
55483;SDS011;41345;51.704;5.146;2023-02-18T15:33:28;18.23;;;9.73;;
55483;SDS011;41345;51.704;5.146;2023-02-18T15:38:28;13.93;;;9.27;;
55483;SDS011;41345;51.704;5.146;2023-02-18T15:43:28;12.47;;;9.93;;
55483;SDS011;41345;51.704;5.146;2023-02-18T15:48:31;11.68;;;9.55;;
55483;SDS011;41345;51.704;5.146;2023-02-18T15:53:35;15.15;;;9.63;;
55483;SDS011;41345;51.704;5.146;2023-02-18T15:58:37;12.80;;;9.50;;
55483;SDS011;41345;51.704;5.146;2023-02-18T16:03:44;11.85;;;8.93;;
55483;SDS011;41345;51.704;5.146;2023-02-18T16:08:53;14.52;;;10.43;;
55483;SDS011;41345;51.704;5.146;2023-02-18T16:13:54;17.35;;;10.25;;
55483;SDS011;41345;51.704;5.146;2023-02-18T16:18:55;15.55;;;10.20;;
55483;SDS011;41345;51.704;5.146;2023-02-18T16:24:00;13.73;;;10.48;;
55483;SDS011;41345;51.704;5.146;2023-02-18T16:29:02;16.65;;;10.35;;
55483;SDS011;41345;51.704;5.146;2023-02-18T16:34:04;15.90;;;11.43;;
55483;SDS011;41345;51.704;5.146;2023-02-18T16:39:04;15.23;;;12.25;;
55483;SDS011;41345;51.704;5.146;2023-02-18T16:44:09;18.67;;;11.38;;
55483;SDS011;41345;51.704;5.146;2023-02-18T16:49:12;29.15;;;13.77;;
55483;SDS011;41345;51.704;5.146;2023-02-18T16:54:13;18.70;;;12.55;;
55483;SDS011;41345;51.704;5.146;2023-02-18T16:59:13;20.42;;;15.68;;
55483;SDS011;41345;51.704;5.146;2023-02-18T17:04:14;23.52;;;17.52;;
55483;SDS011;41345;51.704;5.146;2023-02-18T17:14:16;25.45;;;19.75;;
55483;SDS011;41345;51.704;5.146;2023-02-18T17:19:17;22.20;;;17.73;;
55483;SDS011;41345;51.704;5.146;2023-02-18T17:24:17;25.70;;;20.17;;
55483;SDS011;41345;51.704;5.146;2023-02-18T17:29:18;24.75;;;22.00;;
55483;SDS011;41345;51.704;5.146;2023-02-18T17:34:23;32.78;;;29.63;;
55483;SDS011;41345;51.704;5.146;2023-02-18T17:39:24;32.65;;;29.17;;
55483;SDS011;41345;51.704;5.146;2023-02-18T17:44:24;37.10;;;33.33;;
55483;SDS011;41345;51.704;5.146;2023-02-18T17:49:25;38.65;;;34.60;;
55483;SDS011;41345;51.704;5.146;2023-02-18T17:54:25;41.50;;;37.03;;
55483;SDS011;41345;51.704;5.146;2023-02-18T17:59:25;39.80;;;35.72;;
55483;SDS011;41345;51.704;5.146;2023-02-18T18:04:28;38.05;;;34.35;;
55483;SDS011;41345;51.704;5.146;2023-02-18T18:09:28;38.63;;;34.70;;
55483;SDS011;41345;51.704;5.146;2023-02-18T18:14:28;41.55;;;36.67;;
55483;SDS011;41345;51.704;5.146;2023-02-18T18:19:28;39.13;;;34.63;;
55483;SDS011;41345;51.704;5.146;2023-02-18T18:24:30;40.72;;;36.42;;
55483;SDS011;41345;51.704;5.146;2023-02-18T18:29:31;40.10;;;35.93;;
55483;SDS011;41345;51.704;5.146;2023-02-18T18:34:32;40.50;;;36.55;;
55483;SDS011;41345;51.704;5.146;2023-02-18T18:39:32;40.53;;;36.17;;
55483;SDS011;41345;51.704;5.146;2023-02-18T18:44:32;37.97;;;34.00;;
55483;SDS011;41345;51.704;5.146;2023-02-18T18:49:33;42.67;;;33.97;;
55483;SDS011;41345;51.704;5.146;2023-02-18T18:54:33;38.03;;;34.10;;
55483;SDS011;41345;51.704;5.146;2023-02-18T18:59:33;38.45;;;33.33;;
55483;SDS011;41345;51.704;5.146;2023-02-18T19:04:33;39.38;;;35.33;;
55483;SDS011;41345;51.704;5.146;2023-02-18T19:09:34;35.55;;;31.75;;
55483;SDS011;41345;51.704;5.146;2023-02-18T19:14:34;39.72;;;32.75;;
55483;SDS011;41345;51.704;5.146;2023-02-18T19:19:34;38.90;;;33.08;;
55483;SDS011;41345;51.704;5.146;2023-02-18T19:24:34;37.97;;;33.88;;
55483;SDS011;41345;51.704;5.146;2023-02-18T19:29:35;37.37;;;33.40;;
55483;SDS011;41345;51.704;5.146;2023-02-18T19:34:35;36.58;;;32.47;;
55483;SDS011;41345;51.704;5.146;2023-02-18T19:39:35;37.97;;;33.90;;
55483;SDS011;41345;51.704;5.146;2023-02-18T19:44:36;42.75;;;38.20;;
55483;SDS011;41345;51.704;5.146;2023-02-18T19:49:36;42.70;;;37.70;;
55483;SDS011;41345;51.704;5.146;2023-02-18T19:54:36;43.92;;;39.38;;
55483;SDS011;41345;51.704;5.146;2023-02-18T19:59:37;42.60;;;38.00;;
55483;SDS011;41345;51.704;5.146;2023-02-18T20:04:37;45.17;;;40.47;;
55483;SDS011;41345;51.704;5.146;2023-02-18T20:09:37;49.67;;;41.22;;
55483;SDS011;41345;51.704;5.146;2023-02-18T20:14:38;43.53;;;39.03;;
55483;SDS011;41345;51.704;5.146;2023-02-18T20:19:39;42.97;;;38.70;;
55483;SDS011;41345;51.704;5.146;2023-02-18T20:24:39;44.38;;;38.65;;
55483;SDS011;41345;51.704;5.146;2023-02-18T20:29:39;43.20;;;38.65;;
55483;SDS011;41345;51.704;5.146;2023-02-18T20:34:40;41.47;;;37.00;;
55483;SDS011;41345;51.704;5.146;2023-02-18T20:39:40;43.72;;;39.13;;
55483;SDS011;41345;51.704;5.146;2023-02-18T20:44:40;41.25;;;34.00;;
55483;SDS011;41345;51.704;5.146;2023-02-18T20:49:41;42.67;;;38.07;;
55483;SDS011;41345;51.704;5.146;2023-02-18T20:54:41;45.10;;;36.93;;
55483;SDS011;41345;51.704;5.146;2023-02-18T20:59:41;47.30;;;40.63;;
55483;SDS011;41345;51.704;5.146;2023-02-18T21:04:42;50.90;;;42.95;;
55483;SDS011;41345;51.704;5.146;2023-02-18T21:09:43;54.20;;;48.53;;
55483;SDS011;41345;51.704;5.146;2023-02-18T21:14:44;51.90;;;46.35;;
55483;SDS011;41345;51.704;5.146;2023-02-18T21:19:44;50.67;;;44.83;;
55483;SDS011;41345;51.704;5.146;2023-02-18T21:24:44;53.10;;;47.35;;
55483;SDS011;41345;51.704;5.146;2023-02-18T21:29:44;50.38;;;44.55;;
55483;SDS011;41345;51.704;5.146;2023-02-18T21:34:45;55.07;;;45.73;;
55483;SDS011;41345;51.704;5.146;2023-02-18T21:39:45;49.03;;;41.10;;
55483;SDS011;41345;51.704;5.146;2023-02-18T21:44:45;47.58;;;42.65;;
55483;SDS011;41345;51.704;5.146;2023-02-18T21:49:46;47.85;;;42.75;;
55483;SDS011;41345;51.704;5.146;2023-02-18T21:54:46;51.38;;;42.08;;
55483;SDS011;41345;51.704;5.146;2023-02-18T21:59:47;55.83;;;41.70;;
55483;SDS011;41345;51.704;5.146;2023-02-18T22:04:48;50.13;;;41.38;;
55483;SDS011;41345;51.704;5.146;2023-02-18T22:09:48;50.05;;;38.03;;
55483;SDS011;41345;51.704;5.146;2023-02-18T22:14:49;49.35;;;41.20;;
55483;SDS011;41345;51.704;5.146;2023-02-18T22:19:50;49.00;;;41.95;;
55483;SDS011;41345;51.704;5.146;2023-02-18T22:24:50;51.73;;;41.50;;
55483;SDS011;41345;51.704;5.146;2023-02-18T22:29:50;49.33;;;44.13;;
55483;SDS011;41345;51.704;5.146;2023-02-18T22:34:51;49.33;;;44.00;;
55483;SDS011;41345;51.704;5.146;2023-02-18T22:39:52;47.92;;;41.50;;
55483;SDS011;41345;51.704;5.146;2023-02-18T22:44:52;42.15;;;37.78;;
55483;SDS011;41345;51.704;5.146;2023-02-18T22:49:52;52.05;;;46.80;;
55483;SDS011;41345;51.704;5.146;2023-02-18T22:54:52;49.50;;;42.33;;
55483;SDS011;41345;51.704;5.146;2023-02-18T22:59:53;45.50;;;40.70;;
55483;SDS011;41345;51.704;5.146;2023-02-18T23:04:53;44.15;;;39.60;;
55483;SDS011;41345;51.704;5.146;2023-02-18T23:09:53;42.13;;;37.55;;
55483;SDS011;41345;51.704;5.146;2023-02-18T23:14:54;40.92;;;36.65;;
55483;SDS011;41345;51.704;5.146;2023-02-18T23:19:54;42.05;;;37.13;;
55483;SDS011;41345;51.704;5.146;2023-02-18T23:24:55;37.67;;;33.65;;
55483;SDS011;41345;51.704;5.146;2023-02-18T23:29:55;37.40;;;33.13;;
55483;SDS011;41345;51.704;5.146;2023-02-18T23:34:55;40.83;;;36.60;;
55483;SDS011;41345;51.704;5.146;2023-02-18T23:39:56;47.47;;;43.03;;
55483;SDS011;41345;51.704;5.146;2023-02-18T23:44:56;48.03;;;43.27;;
55483;SDS011;41345;51.704;5.146;2023-02-18T23:49:56;49.00;;;44.05;;
55483;SDS011;41345;51.704;5.146;2023-02-18T23:54:57;48.25;;;43.88;;
55483;SDS011;41345;51.704;5.146;2023-02-18T23:59:57;48.90;;;43.88;;
